createdAt,value
2018-07-03T00:01:00.341Z,53.30
2018-07-03T00:03:27.593Z,53.40
2018-07-03T00:05:54.828Z,54.10
2018-07-03T00:08:22.040Z,53.90
2018-07-03T00:10:49.276Z,53.90
2018-07-03T00:13:16.498Z,54.20
2018-07-03T00:15:43.701Z,54.10
2018-07-03T00:18:11.142Z,54.40
2018-07-03T00:20:38.396Z,54.20
2018-07-03T00:23:05.640Z,54.40
2018-07-03T00:25:32.897Z,54.60
2018-07-03T00:28:00.116Z,54.60
2018-07-03T00:30:27.849Z,54.90
2018-07-03T00:32:55.073Z,54.50
2018-07-03T00:35:22.321Z,54.80
2018-07-03T00:37:49.553Z,54.80
2018-07-03T00:40:16.788Z,55.10
2018-07-03T00:42:44.030Z,55.70
2018-07-03T00:45:11.255Z,56.00
2018-07-03T00:47:38.479Z,56.40
2018-07-03T00:50:05.691Z,57.30
2018-07-03T00:52:32.904Z,56.90
2018-07-03T00:55:00.117Z,56.90
2018-07-03T00:57:27.318Z,56.70
2018-07-03T01:00:06.066Z,57.00
2018-07-03T01:02:33.310Z,56.80
2018-07-03T01:07:27.806Z,57.10
2018-07-03T01:09:55.068Z,57.30
2018-07-03T01:12:22.320Z,57.20
2018-07-03T01:14:49.541Z,57.00
2018-07-03T01:17:16.766Z,57.40
2018-07-03T01:19:44.004Z,57.40
2018-07-03T01:22:11.207Z,57.50
2018-07-03T01:24:38.436Z,57.30
2018-07-03T01:27:05.685Z,57.20
2018-07-03T01:29:32.907Z,57.00
2018-07-03T01:32:00.114Z,57.10
2018-07-03T01:34:27.527Z,57.10
2018-07-03T01:36:54.749Z,57.40
2018-07-03T01:39:21.964Z,56.80
2018-07-03T01:41:49.189Z,56.60
2018-07-03T01:44:18.205Z,57.30
2018-07-03T01:46:45.377Z,56.50
2018-07-03T01:49:12.538Z,56.50
2018-07-03T01:51:39.710Z,57.00
2018-07-03T01:54:06.894Z,57.20
2018-07-03T01:56:34.065Z,57.40
2018-07-03T01:59:01.241Z,57.20
2018-07-03T02:01:28.409Z,57.00
2018-07-03T02:03:55.569Z,57.00
2018-07-03T02:06:22.797Z,57.80
2018-07-03T02:08:50.038Z,57.30
2018-07-03T02:11:17.277Z,57.40
2018-07-03T02:13:44.497Z,58.00
2018-07-03T02:16:11.717Z,57.70
2018-07-03T02:18:38.924Z,58.20
2018-07-03T02:21:06.142Z,57.80
2018-07-03T02:23:33.357Z,57.80
2018-07-03T02:26:00.584Z,57.90
2018-07-03T02:28:27.801Z,57.60
2018-07-03T02:30:55.150Z,57.60
2018-07-03T02:33:22.443Z,57.50
2018-07-03T02:35:49.694Z,57.50
2018-07-03T02:38:16.903Z,57.50
2018-07-03T02:40:44.126Z,57.40
2018-07-03T02:43:11.371Z,57.50
2018-07-03T02:45:38.601Z,57.40
2018-07-03T02:48:05.860Z,58.00
2018-07-03T02:50:33.074Z,58.20
2018-07-03T02:55:27.529Z,58.60
2018-07-03T02:57:54.750Z,59.10
2018-07-03T03:00:21.985Z,59.20
2018-07-03T03:02:49.199Z,59.60
2018-07-03T03:05:16.422Z,59.40
2018-07-03T03:07:44.017Z,59.40
2018-07-03T03:10:11.238Z,59.40
2018-07-03T03:12:39.609Z,59.30
2018-07-03T03:15:10.111Z,59.20
2018-07-03T03:17:38.994Z,59.40
2018-07-03T03:20:08.937Z,59.80
2018-07-03T03:22:38.487Z,59.70
2018-07-03T03:25:05.765Z,60.10
2018-07-03T03:27:32.997Z,60.40
2018-07-03T03:30:00.226Z,59.90
2018-07-03T03:32:27.506Z,59.90
2018-07-03T03:34:54.905Z,60.00
2018-07-03T03:37:23.421Z,60.10
2018-07-03T03:39:50.641Z,60.00
2018-07-03T03:42:17.843Z,60.20
2018-07-03T03:44:45.053Z,60.70
2018-07-03T03:47:12.282Z,60.70
2018-07-03T03:49:39.509Z,61.10
2018-07-03T03:52:06.736Z,61.30
2018-07-03T03:54:34.209Z,61.30
2018-07-03T03:57:01.581Z,61.70
2018-07-03T03:59:28.742Z,61.80
2018-07-03T04:01:55.913Z,61.80
2018-07-03T04:04:23.105Z,61.60
2018-07-03T04:06:50.260Z,61.60
2018-07-03T04:09:17.425Z,61.60
2018-07-03T04:11:44.586Z,62.20
2018-07-03T04:14:11.747Z,61.70
2018-07-03T04:19:06.107Z,61.70
2018-07-03T04:21:33.296Z,62.10
2018-07-03T04:24:00.481Z,62.00
2018-07-03T04:26:27.641Z,62.30
2018-07-03T04:31:21.993Z,63.40
2018-07-03T04:33:49.223Z,62.00
2018-07-03T04:36:16.381Z,62.30
2018-07-03T04:38:43.545Z,62.30
2018-07-03T04:41:10.717Z,61.70
2018-07-03T04:43:37.873Z,62.00
2018-07-03T04:46:05.054Z,62.60
2018-07-03T04:48:32.233Z,62.40
2018-07-03T04:50:59.434Z,62.40
2018-07-03T04:53:26.693Z,62.30
2018-07-03T04:58:21.056Z,62.70
2018-07-03T05:03:15.481Z,62.20
2018-07-03T05:08:09.931Z,61.20
2018-07-03T05:10:37.164Z,62.10
2018-07-03T05:13:04.365Z,62.00
2018-07-03T05:15:31.639Z,61.40
2018-07-03T05:17:58.858Z,61.60
2018-07-03T05:20:26.105Z,61.70
2018-07-03T05:22:53.321Z,61.50
2018-07-03T05:25:20.540Z,62.10
2018-07-03T05:27:47.751Z,62.70
2018-07-03T05:30:15.010Z,62.70
2018-07-03T05:32:42.228Z,62.10
2018-07-03T05:35:09.450Z,62.10
2018-07-03T05:37:36.690Z,61.70
2018-07-03T05:40:04.453Z,62.20
2018-07-03T05:42:31.671Z,61.50
2018-07-03T05:44:58.916Z,61.50
2018-07-03T05:47:26.144Z,61.30
2018-07-03T05:52:20.707Z,60.80
2018-07-03T05:54:47.949Z,60.60
2018-07-03T05:57:15.185Z,60.80
2018-07-03T05:59:42.404Z,60.90
2018-07-03T06:02:09.647Z,61.00
2018-07-03T06:04:36.861Z,60.10
2018-07-03T06:07:04.275Z,61.20
2018-07-03T06:09:31.506Z,60.70
2018-07-03T06:11:58.745Z,61.20
2018-07-03T06:14:25.965Z,61.20
2018-07-03T06:16:54.634Z,60.50
2018-07-03T06:19:22.501Z,58.60
2018-07-03T06:21:50.292Z,59.90
2018-07-03T06:24:17.518Z,61.50
2018-07-03T06:26:44.785Z,60.50
2018-07-03T06:29:12.004Z,60.50
2018-07-03T06:31:39.367Z,60.50
2018-07-03T06:34:06.450Z,60.60
2018-07-03T06:36:33.661Z,59.80
2018-07-03T06:39:00.869Z,58.80
2018-07-03T06:41:28.098Z,58.60
2018-07-03T06:43:55.317Z,59.60
2018-07-03T06:46:22.545Z,58.80
2018-07-03T06:48:49.758Z,57.60
2018-07-03T06:51:16.976Z,58.00
2018-07-03T06:53:44.158Z,57.40
2018-07-03T06:56:11.325Z,58.10
2018-07-03T06:58:38.502Z,56.30
2018-07-03T07:01:05.690Z,54.20
2018-07-03T07:03:32.862Z,51.50
2018-07-03T07:06:00.070Z,48.00
2018-07-03T07:08:27.281Z,47.20
2018-07-03T07:10:54.461Z,46.00
2018-07-03T07:13:21.663Z,44.60
2018-07-03T07:15:48.841Z,43.70
2018-07-03T07:18:16.015Z,41.70
2018-07-03T07:20:43.181Z,43.40
2018-07-03T07:23:10.365Z,41.40
2018-07-03T07:25:37.553Z,41.40
2018-07-03T07:28:04.733Z,40.20
2018-07-03T07:30:31.917Z,41.90
2018-07-03T07:32:59.176Z,40.60
2018-07-03T07:37:53.521Z,39.20
2018-07-03T07:40:20.721Z,39.50
2018-07-03T07:42:47.958Z,39.80
2018-07-03T07:45:15.102Z,37.20
2018-07-03T07:47:42.261Z,39.30
2018-07-03T07:50:09.430Z,40.30
2018-07-03T07:52:36.669Z,40.50
2018-07-03T07:55:03.906Z,39.80
2018-07-03T07:57:31.125Z,40.00
2018-07-03T07:59:58.346Z,38.00
2018-07-03T08:02:25.545Z,36.60
2018-07-03T08:04:52.761Z,38.40
2018-07-03T08:07:19.971Z,39.40
2018-07-03T08:09:47.189Z,39.00
2018-07-03T08:12:14.416Z,39.30
2018-07-03T08:14:41.649Z,39.30
2018-07-03T08:17:08.877Z,40.80
2018-07-03T08:19:36.125Z,38.50
2018-07-03T08:22:03.413Z,38.70
2018-07-03T08:24:30.712Z,38.00
2018-07-03T08:26:57.946Z,41.20
2018-07-03T08:29:25.165Z,35.90
2018-07-03T08:31:52.394Z,34.60
2018-07-03T08:34:19.606Z,37.10
2018-07-03T08:36:46.812Z,38.70
2018-07-03T08:39:14.069Z,37.80
2018-07-03T08:41:41.621Z,36.60
2018-07-03T08:44:08.873Z,37.30
2018-07-03T08:46:36.125Z,36.80
2018-07-03T08:49:03.830Z,36.20
2018-07-03T08:51:31.062Z,36.20
2018-07-03T08:53:58.277Z,37.40
2018-07-03T08:56:25.505Z,35.90
2018-07-03T08:58:52.752Z,34.10
2018-07-03T09:01:20.006Z,32.70
2018-07-03T09:03:47.284Z,32.60
2018-07-03T09:06:14.489Z,31.80
2018-07-03T09:08:41.694Z,32.00
2018-07-03T09:11:08.917Z,33.00
2018-07-03T09:13:36.133Z,31.60
2018-07-03T09:16:03.373Z,31.10
2018-07-03T09:18:30.589Z,30.60
2018-07-03T09:20:57.817Z,30.80
2018-07-03T09:23:25.039Z,30.00
2018-07-03T09:25:52.266Z,30.60
2018-07-03T09:28:19.493Z,32.90
2018-07-03T09:30:46.737Z,31.30
2018-07-03T09:33:13.953Z,31.70
2018-07-03T09:35:41.201Z,29.90
2018-07-03T09:38:08.443Z,29.90
2018-07-03T09:40:36.690Z,32.70
2018-07-03T09:43:03.996Z,30.40
2018-07-03T09:45:31.225Z,30.80
2018-07-03T09:47:58.444Z,30.30
2018-07-03T09:50:26.145Z,30.00
2018-07-03T09:52:53.359Z,29.60
2018-07-03T09:55:20.599Z,30.20
2018-07-03T09:57:47.814Z,30.70
2018-07-03T10:00:18.417Z,30.40
2018-07-03T10:02:45.630Z,29.90
2018-07-03T10:05:12.834Z,30.10
2018-07-03T10:10:07.261Z,31.00
2018-07-03T10:12:34.469Z,29.40
2018-07-03T10:15:01.673Z,29.10
2018-07-03T10:17:28.901Z,31.60
2018-07-03T10:19:56.113Z,30.20
2018-07-03T10:22:23.338Z,29.20
2018-07-03T10:24:50.562Z,30.60
2018-07-03T10:27:17.774Z,30.70
2018-07-03T10:29:44.974Z,30.20
2018-07-03T10:32:12.212Z,31.80
2018-07-03T10:34:39.429Z,31.30
2018-07-03T10:37:06.662Z,30.60
2018-07-03T10:42:01.077Z,32.00
2018-07-03T10:44:28.280Z,33.60
2018-07-03T10:46:55.506Z,33.60
2018-07-03T10:49:22.719Z,34.10
2018-07-03T10:51:49.932Z,32.70
2018-07-03T10:54:17.121Z,32.50
2018-07-03T10:56:44.437Z,30.00
2018-07-03T10:59:11.595Z,31.00
2018-07-03T11:01:38.781Z,32.10
2018-07-03T11:06:33.161Z,31.90
2018-07-03T11:09:00.446Z,33.70
2018-07-03T11:11:27.935Z,35.10
2018-07-03T11:13:55.157Z,34.40
2018-07-03T11:16:22.261Z,34.50
2018-07-03T11:18:49.429Z,33.70
2018-07-03T11:21:16.586Z,33.20
2018-07-03T11:23:43.785Z,34.80
2018-07-03T11:26:10.945Z,33.90
2018-07-03T11:28:38.117Z,32.50
2018-07-03T11:31:05.316Z,33.60
2018-07-03T11:33:32.593Z,32.10
2018-07-03T11:35:59.758Z,33.00
2018-07-03T11:38:26.918Z,34.50
2018-07-03T11:40:54.073Z,33.80
2018-07-03T11:43:21.242Z,33.80
2018-07-03T11:45:48.429Z,34.20
2018-07-03T11:48:15.621Z,35.30
2018-07-03T11:50:42.793Z,36.20
2018-07-03T11:53:09.985Z,39.10
2018-07-03T11:55:37.154Z,36.20
2018-07-03T11:58:04.372Z,37.10
2018-07-03T12:00:31.591Z,37.70
2018-07-03T12:02:58.764Z,35.30
2018-07-03T12:05:25.924Z,36.30
2018-07-03T12:07:53.265Z,37.60
2018-07-03T12:10:20.437Z,39.00
2018-07-03T12:12:47.901Z,38.40
2018-07-03T12:15:15.112Z,40.10
2018-07-03T12:17:42.303Z,39.20
2018-07-03T12:20:09.522Z,40.50
2018-07-03T12:22:36.680Z,41.40
2018-07-03T12:25:04.177Z,40.80
2018-07-03T12:27:31.337Z,41.70
2018-07-03T12:29:58.521Z,40.70
2018-07-03T12:32:25.673Z,42.70
2018-07-03T12:34:52.857Z,43.40
2018-07-03T12:37:20.053Z,43.70
2018-07-03T12:39:47.241Z,43.70
2018-07-03T12:42:14.581Z,45.90
2018-07-03T12:44:41.769Z,45.20
2018-07-03T12:47:08.913Z,44.80
2018-07-03T12:49:36.109Z,45.60
2018-07-03T12:52:03.290Z,45.70
2018-07-03T12:54:30.497Z,46.50
2018-07-03T12:56:57.674Z,45.70
2018-07-03T12:59:24.846Z,46.10
2018-07-03T13:01:52.029Z,46.30
2018-07-03T13:04:19.199Z,46.00
2018-07-03T13:06:46.420Z,45.90
2018-07-03T13:09:13.606Z,47.00
2018-07-03T13:11:41.117Z,49.80
2018-07-03T13:14:08.296Z,49.60
2018-07-03T13:16:35.490Z,48.10
2018-07-03T13:19:02.709Z,48.70
2018-07-03T13:21:29.912Z,46.00
2018-07-03T13:23:57.121Z,47.30
2018-07-03T13:26:24.305Z,45.50
2018-07-03T13:28:51.520Z,43.20
2018-07-03T13:31:18.705Z,45.70
2018-07-03T13:33:45.868Z,46.70
2018-07-03T13:36:13.061Z,42.20
2018-07-03T13:38:40.234Z,43.40
2018-07-03T13:41:07.673Z,42.50
2018-07-03T13:43:34.843Z,44.60
2018-07-03T13:46:02.063Z,44.40
2018-07-03T13:48:29.335Z,43.80
2018-07-03T13:50:56.461Z,44.20
2018-07-03T13:53:23.637Z,44.40
2018-07-03T13:55:50.816Z,45.70
2018-07-03T13:58:17.969Z,45.20
2018-07-03T14:00:45.150Z,45.10
2018-07-03T14:03:12.297Z,46.40
2018-07-03T14:05:39.457Z,46.90
2018-07-03T14:08:06.637Z,47.20
2018-07-03T14:10:33.808Z,46.60
2018-07-03T14:13:00.977Z,49.10
2018-07-03T14:15:28.176Z,48.70
2018-07-03T14:17:55.724Z,49.10
2018-07-03T14:20:22.909Z,49.90
2018-07-03T14:22:50.127Z,50.80
2018-07-03T14:25:17.317Z,51.30
2018-07-03T14:27:44.491Z,51.50
2018-07-03T14:30:11.655Z,51.30
2018-07-03T14:32:38.821Z,51.10
2018-07-03T14:35:05.998Z,50.60
2018-07-03T14:40:00.370Z,51.70
2018-07-03T14:42:27.527Z,50.50
2018-07-03T14:44:54.744Z,52.50
2018-07-03T14:47:21.921Z,51.20
2018-07-03T14:49:49.073Z,52.00
2018-07-03T14:52:16.229Z,51.20
2018-07-03T14:54:43.441Z,51.40
2018-07-03T14:57:10.669Z,50.60
2018-07-03T15:02:05.448Z,48.20
2018-07-03T15:04:32.651Z,49.20
2018-07-03T15:06:59.881Z,46.40
2018-07-03T15:09:27.102Z,46.30
2018-07-03T15:14:21.509Z,44.20
2018-07-03T15:16:48.769Z,42.20
2018-07-03T15:19:21.665Z,40.80
2018-07-03T15:21:48.906Z,42.20
2018-07-03T15:24:16.101Z,41.20
2018-07-03T15:26:43.322Z,40.20
2018-07-03T15:29:11.545Z,40.10
2018-07-03T15:31:39.005Z,37.90
2018-07-03T15:34:08.193Z,38.80
2018-07-03T15:36:35.437Z,39.20
2018-07-03T15:39:04.559Z,37.80
2018-07-03T15:41:31.785Z,38.20
2018-07-03T15:44:10.324Z,38.30
2018-07-03T15:46:37.551Z,37.60
2018-07-03T15:49:04.759Z,37.30
2018-07-03T15:51:31.973Z,39.80
2018-07-03T15:53:59.141Z,37.50
2018-07-03T15:56:26.289Z,39.50
2018-07-03T15:58:53.481Z,39.90
2018-07-03T16:01:20.701Z,39.20
2018-07-03T16:03:59.325Z,39.90
2018-07-03T16:06:37.915Z,38.40
2018-07-03T16:09:10.025Z,39.20
2018-07-03T16:11:37.638Z,37.60
2018-07-03T16:14:04.854Z,39.70
2018-07-03T16:16:32.229Z,39.50
2018-07-03T16:19:05.094Z,40.20
2018-07-03T16:21:32.245Z,40.30
2018-07-03T16:23:59.415Z,39.70
2018-07-03T16:26:26.582Z,39.00
2018-07-03T16:28:54.339Z,39.90
2018-07-03T16:31:21.902Z,39.20
2018-07-03T16:33:49.091Z,39.40
2018-07-03T16:36:16.368Z,39.60
2018-07-03T16:38:43.544Z,39.30
2018-07-03T16:41:10.702Z,40.40
2018-07-03T16:43:37.865Z,40.30
2018-07-03T16:46:05.060Z,39.90
2018-07-03T16:48:32.230Z,38.60
2018-07-03T16:50:59.389Z,39.50
2018-07-03T16:53:26.557Z,40.40
2018-07-03T16:55:53.716Z,41.10
2018-07-03T16:58:20.889Z,41.30
2018-07-03T17:00:48.049Z,41.90
2018-07-03T17:03:15.229Z,42.50
2018-07-03T17:05:42.363Z,43.70
2018-07-03T17:08:09.566Z,43.30
2018-07-03T17:10:36.724Z,43.40
2018-07-03T17:13:03.947Z,45.80
2018-07-03T17:15:31.117Z,45.50
2018-07-03T17:17:58.279Z,45.00
2018-07-03T17:20:25.486Z,43.90
2018-07-03T17:22:52.626Z,44.70
2018-07-03T17:25:19.828Z,45.50
2018-07-03T17:27:46.990Z,46.50
2018-07-03T17:30:14.213Z,47.60
2018-07-03T17:32:41.709Z,47.20
2018-07-03T17:35:11.002Z,49.20
2018-07-03T17:37:41.559Z,47.70
2018-07-03T17:40:20.199Z,49.80
2018-07-03T17:42:59.000Z,49.90
2018-07-03T17:45:40.978Z,50.00
2018-07-03T17:48:09.491Z,50.10
2018-07-03T17:50:36.918Z,50.10
2018-07-03T17:53:04.104Z,51.10
2018-07-03T17:55:31.920Z,50.80
2018-07-03T17:57:59.857Z,51.00
2018-07-03T18:00:28.210Z,50.90
2018-07-03T18:02:57.130Z,50.80
2018-07-03T18:05:27.844Z,52.00
2018-07-03T18:07:57.012Z,51.40
2018-07-03T18:10:24.426Z,51.50
2018-07-03T18:12:51.619Z,51.60
2018-07-03T18:15:19.234Z,52.20
2018-07-03T18:17:46.513Z,52.20
2018-07-03T18:20:13.749Z,52.90
2018-07-03T18:22:41.685Z,53.60
2018-07-03T18:25:08.930Z,54.20
2018-07-03T18:27:36.389Z,54.90
2018-07-03T18:30:04.276Z,54.10
2018-07-03T18:32:31.537Z,54.30
2018-07-03T18:34:58.729Z,54.40
2018-07-03T18:37:25.885Z,54.30
2018-07-03T18:39:53.100Z,55.00
2018-07-03T18:42:20.281Z,55.40
2018-07-03T18:44:47.476Z,55.50
2018-07-03T18:47:14.653Z,55.50
2018-07-03T18:49:41.818Z,55.40
2018-07-03T18:54:36.543Z,56.00
2018-07-03T18:57:04.287Z,56.50
2018-07-03T18:59:31.453Z,56.60
2018-07-03T19:01:58.634Z,57.00
2018-07-03T19:04:25.872Z,57.30
2018-07-03T19:06:53.113Z,57.90
2018-07-03T19:09:20.332Z,57.40
2018-07-03T19:11:47.511Z,57.40
2018-07-03T19:16:42.023Z,57.90
2018-07-03T19:19:09.189Z,58.50
2018-07-03T19:21:36.373Z,58.50
2018-07-03T19:24:03.603Z,58.80
2018-07-03T19:26:30.807Z,58.90
2018-07-03T19:28:58.024Z,58.50
2018-07-03T19:31:25.201Z,59.20
2018-07-03T19:33:52.502Z,59.50
2018-07-03T19:36:19.744Z,59.70
2018-07-03T19:38:47.065Z,59.90
2018-07-03T19:41:14.278Z,59.90
2018-07-03T19:43:41.433Z,59.60
2018-07-03T19:46:08.617Z,59.80
2018-07-03T19:48:35.772Z,59.80
2018-07-03T19:51:03.038Z,60.00
2018-07-03T19:53:30.193Z,60.40
2018-07-03T19:55:58.230Z,60.90
2018-07-03T19:58:25.421Z,61.50
2018-07-03T20:00:53.795Z,61.70
2018-07-03T20:03:21.013Z,61.90
2018-07-03T20:05:48.302Z,62.30
2018-07-03T20:08:15.490Z,62.90
2018-07-03T20:10:42.677Z,63.10
2018-07-03T20:13:11.880Z,63.80
2018-07-03T20:18:07.289Z,64.20
2018-07-03T20:20:34.472Z,64.40
2018-07-03T20:23:01.645Z,65.00
2018-07-03T20:25:28.810Z,64.80
2018-07-03T20:27:56.003Z,65.30
2018-07-03T20:30:23.201Z,66.00
2018-07-03T20:32:50.372Z,66.20
2018-07-03T20:35:17.930Z,66.60
2018-07-03T20:37:53.498Z,67.20
2018-07-03T20:40:21.688Z,67.20
2018-07-03T20:42:49.133Z,67.50
2018-07-03T20:45:17.132Z,67.90
2018-07-03T20:47:44.618Z,68.10
2018-07-03T20:50:11.779Z,68.20
2018-07-03T20:52:38.997Z,68.40
2018-07-03T20:55:06.273Z,68.80
2018-07-03T20:57:33.666Z,69.80
2018-07-03T21:00:01.162Z,69.30
2018-07-03T21:02:28.358Z,69.80
2018-07-03T21:04:55.578Z,70.00
2018-07-03T21:07:23.042Z,70.70
2018-07-03T21:09:51.309Z,71.00
2018-07-03T21:12:18.549Z,71.20
2018-07-03T21:14:45.762Z,71.70
2018-07-03T21:17:12.984Z,72.10
2018-07-03T21:19:40.197Z,72.70
2018-07-03T21:22:07.405Z,73.10
2018-07-03T21:24:34.626Z,73.50
2018-07-03T21:27:01.833Z,74.00
2018-07-03T21:29:29.041Z,74.70
2018-07-03T21:31:56.300Z,75.10
2018-07-03T21:34:23.509Z,75.90
2018-07-03T21:36:50.713Z,76.70
2018-07-03T21:39:17.958Z,77.50
2018-07-03T21:41:45.139Z,78.20
2018-07-03T21:44:12.372Z,79.00
2018-07-03T21:46:39.568Z,80.10
2018-07-03T21:49:06.773Z,80.80
2018-07-03T21:54:01.189Z,82.10
2018-07-03T21:56:28.424Z,82.90
2018-07-03T21:58:55.626Z,83.30
2018-07-03T22:01:22.841Z,83.70
2018-07-03T22:03:50.051Z,85.50
2018-07-03T22:06:17.258Z,85.70
2018-07-03T22:08:44.493Z,87.50
2018-07-03T22:11:11.704Z,89.50
2018-07-03T22:13:38.927Z,90.10
2018-07-03T22:16:06.125Z,90.30
2018-07-03T22:18:33.330Z,91.00
2018-07-03T22:21:00.551Z,91.50
2018-07-03T22:23:27.757Z,92.60
2018-07-03T22:28:22.193Z,94.00
2018-07-03T22:30:49.405Z,94.40
2018-07-03T22:33:16.611Z,95.10
2018-07-03T22:35:43.826Z,95.40
2018-07-03T22:38:11.029Z,95.50
2018-07-03T22:43:05.619Z,95.30
2018-07-03T22:45:32.826Z,95.30
2018-07-03T22:48:00.036Z,95.50
2018-07-03T22:50:27.245Z,95.80
2018-07-03T22:52:54.661Z,95.60
2018-07-03T22:55:22.322Z,95.50
2018-07-03T22:57:49.649Z,95.30
2018-07-03T23:00:16.862Z,95.30
2018-07-03T23:02:44.070Z,95.90
2018-07-03T23:05:11.273Z,96.60
2018-07-03T23:07:38.511Z,96.90
2018-07-03T23:10:05.741Z,97.20
2018-07-03T23:12:32.942Z,97.10
2018-07-03T23:15:00.206Z,97.20
2018-07-03T23:17:27.489Z,96.90
2018-07-03T23:19:54.701Z,96.90
2018-07-03T23:22:21.917Z,97.00
2018-07-03T23:24:49.124Z,96.90
2018-07-03T23:27:16.329Z,96.90
2018-07-03T23:29:43.653Z,96.80
2018-07-03T23:32:11.333Z,96.80
2018-07-03T23:34:38.905Z,97.00
2018-07-03T23:37:06.117Z,97.00
2018-07-03T23:39:33.350Z,97.40
2018-07-03T23:42:00.553Z,97.70
2018-07-03T23:44:27.761Z,98.40
2018-07-03T23:47:06.628Z,98.10
2018-07-03T23:49:45.385Z,97.90
2018-07-03T23:52:24.125Z,97.60
2018-07-03T23:55:02.990Z,97.20
2018-07-03T23:57:41.941Z,96.90
